createdAt,value
2018-10-05T00:02:24.166Z,98598.00
2018-10-05T00:04:54.100Z,98589.00
2018-10-05T00:07:24.025Z,98589.00
2018-10-05T00:09:54.033Z,98588.00
2018-10-05T00:12:24.047Z,98585.00
2018-10-05T00:14:54.131Z,98583.00
2018-10-05T00:17:24.127Z,98585.00
2018-10-05T00:19:54.112Z,98584.00
2018-10-05T00:22:24.178Z,98572.00
2018-10-05T00:24:54.187Z,98589.00
2018-10-05T00:27:24.176Z,98585.00
2018-10-05T00:29:54.181Z,98592.00
2018-10-05T00:32:24.226Z,98591.00
2018-10-05T00:34:54.233Z,98585.00
2018-10-05T00:37:24.263Z,98579.00
2018-10-05T00:40:00.945Z,98584.00
2018-10-05T00:42:30.894Z,98581.00
2018-10-05T00:45:00.857Z,98575.00
2018-10-05T00:47:30.854Z,98574.00
2018-10-05T00:50:00.881Z,98572.00
2018-10-05T00:52:31.520Z,98571.00
2018-10-05T00:55:01.513Z,98572.00
2018-10-05T00:57:31.531Z,98570.00
2018-10-05T01:00:01.499Z,98566.00
2018-10-05T01:02:31.423Z,98561.00
2018-10-05T01:05:01.437Z,98565.00
2018-10-05T01:07:31.378Z,98567.00
2018-10-05T01:10:01.431Z,98567.00
2018-10-05T01:12:31.348Z,98562.00
2018-10-05T01:15:01.315Z,98559.00
2018-10-05T01:17:31.222Z,98559.00
2018-10-05T01:20:01.176Z,98567.00
2018-10-05T01:22:31.103Z,98570.00
2018-10-05T01:25:01.237Z,98567.00
2018-10-05T01:27:31.180Z,98565.00
2018-10-05T01:30:01.232Z,98552.00
2018-10-05T01:32:31.162Z,98553.00
2018-10-05T01:35:01.254Z,98557.00
2018-10-05T01:37:31.206Z,98558.00
2018-10-05T01:40:01.159Z,98559.00
2018-10-05T01:42:31.215Z,98558.00
2018-10-05T01:45:01.471Z,98556.00
2018-10-05T01:47:31.415Z,98551.00
2018-10-05T01:50:01.362Z,98550.00
2018-10-05T01:52:31.425Z,98544.00
2018-10-05T01:55:01.453Z,98543.00
2018-10-05T01:57:32.055Z,98536.00
2018-10-05T02:00:01.964Z,98533.00
2018-10-05T02:02:31.964Z,98531.00
2018-10-05T02:05:01.854Z,98530.00
2018-10-05T02:07:31.863Z,98534.00
2018-10-05T02:10:01.858Z,98529.00
2018-10-05T02:12:31.826Z,98524.00
2018-10-05T02:15:01.821Z,98530.00
2018-10-05T02:17:31.748Z,98521.00
2018-10-05T02:20:01.678Z,98519.00
2018-10-05T02:22:31.599Z,98520.00
2018-10-05T02:25:01.686Z,98522.00
2018-10-05T02:27:31.629Z,98516.00
2018-10-05T02:30:01.582Z,98519.00
2018-10-05T02:32:31.503Z,98520.00
2018-10-05T02:35:01.482Z,98523.00
2018-10-05T02:37:31.421Z,98519.00
2018-10-05T02:40:01.401Z,98519.00
2018-10-05T02:42:31.361Z,98517.00
2018-10-05T02:45:01.346Z,98517.00
2018-10-05T02:47:31.301Z,98516.00
2018-10-05T02:50:01.225Z,98513.00
2018-10-05T02:52:31.220Z,98512.00
2018-10-05T02:55:01.199Z,98514.00
2018-10-05T02:57:31.834Z,98510.00
2018-10-05T03:00:01.887Z,98509.00
2018-10-05T03:02:34.373Z,98509.00
2018-10-05T03:05:04.369Z,98507.00
2018-10-05T03:07:34.322Z,98510.00
2018-10-05T03:10:04.314Z,98511.00
2018-10-05T03:12:34.294Z,98509.00
2018-10-05T03:15:04.340Z,98510.00
2018-10-05T03:17:34.420Z,98506.00
2018-10-05T03:20:04.350Z,98501.00
2018-10-05T03:22:34.308Z,98501.00
2018-10-05T03:25:04.598Z,98499.00
2018-10-05T03:27:34.589Z,98500.00
2018-10-05T03:30:04.657Z,98498.00
2018-10-05T03:32:34.614Z,98499.00
2018-10-05T03:35:04.548Z,98495.00
2018-10-05T03:37:34.502Z,98498.00
2018-10-05T03:40:04.651Z,98496.00
2018-10-05T03:42:34.703Z,98495.00
2018-10-05T03:45:04.685Z,98495.00
2018-10-05T03:47:34.645Z,98499.00
2018-10-05T03:50:04.583Z,98495.00
2018-10-05T03:52:34.535Z,98494.00
2018-10-05T03:55:04.580Z,98498.00
2018-10-05T03:57:34.566Z,98490.00
2018-10-05T04:00:04.514Z,98490.00
2018-10-05T04:02:34.524Z,98490.00
2018-10-05T04:05:04.633Z,98492.00
2018-10-05T04:07:34.617Z,98495.00
2018-10-05T04:10:04.583Z,98499.00
2018-10-05T04:12:34.622Z,98501.00
2018-10-05T04:15:04.588Z,98502.00
2018-10-05T04:17:34.617Z,98509.00
2018-10-05T04:20:04.818Z,98503.00
2018-10-05T04:22:34.825Z,98504.00
2018-10-05T04:25:04.817Z,98499.00
2018-10-05T04:27:34.819Z,98504.00
2018-10-05T04:30:04.832Z,98502.00
2018-10-05T04:32:34.820Z,98505.00
2018-10-05T04:35:04.770Z,98510.00
2018-10-05T04:37:34.801Z,98513.00
2018-10-05T04:40:04.850Z,98514.00
2018-10-05T04:42:34.868Z,98517.00
2018-10-05T04:45:05.326Z,98519.00
2018-10-05T04:47:35.775Z,98520.00
2018-10-05T04:50:06.186Z,98527.00
2018-10-05T04:52:36.503Z,98529.00
2018-10-05T04:55:06.886Z,98532.00
2018-10-05T04:57:44.023Z,98527.00
2018-10-05T05:00:14.346Z,98531.00
2018-10-05T05:02:44.669Z,98533.00
2018-10-05T05:05:15.245Z,98537.00
2018-10-05T05:07:45.823Z,98532.00
2018-10-05T05:10:16.412Z,98540.00
2018-10-05T05:12:46.881Z,98540.00
2018-10-05T05:15:17.291Z,98542.00
2018-10-05T05:17:47.628Z,98545.00
2018-10-05T05:20:18.094Z,98549.00
2018-10-05T05:22:48.315Z,98555.00
2018-10-05T05:25:18.642Z,98550.00
2018-10-05T05:27:49.186Z,98559.00
2018-10-05T05:30:19.797Z,98561.00
2018-10-05T05:32:50.074Z,98568.00
2018-10-05T05:35:20.078Z,98565.00
2018-10-05T05:37:50.726Z,98572.00
2018-10-05T05:40:21.383Z,98573.00
2018-10-05T05:42:51.684Z,98578.00
2018-10-05T05:45:21.666Z,98582.00
2018-10-05T05:47:51.679Z,98581.00
2018-10-05T05:50:21.669Z,98581.00
2018-10-05T05:52:51.688Z,98583.00
2018-10-05T05:55:21.672Z,98590.00
2018-10-05T05:57:51.670Z,98592.00
2018-10-05T06:00:21.878Z,98591.00
2018-10-05T06:02:52.169Z,98596.00
2018-10-05T06:05:22.595Z,98594.00
2018-10-05T06:07:56.066Z,98598.00
2018-10-05T06:10:26.566Z,98596.00
2018-10-05T06:12:57.041Z,98599.00
2018-10-05T06:15:27.728Z,98594.00
2018-10-05T06:17:58.430Z,98595.00
2018-10-05T06:20:28.854Z,98595.00
2018-10-05T06:22:59.191Z,98594.00
2018-10-05T06:25:29.598Z,98596.00
2018-10-05T06:28:00.334Z,98594.00
2018-10-05T06:30:30.805Z,98598.00
2018-10-05T06:33:01.075Z,98602.00
2018-10-05T06:35:31.605Z,98593.00
2018-10-05T06:38:02.072Z,98596.00
2018-10-05T06:40:32.294Z,98595.00
2018-10-05T06:43:02.821Z,98600.00
2018-10-05T06:45:33.241Z,98599.00
2018-10-05T06:48:03.830Z,98601.00
2018-10-05T06:50:34.277Z,98605.00
2018-10-05T06:53:04.505Z,98604.00
2018-10-05T06:55:34.931Z,98600.00
2018-10-05T06:58:04.959Z,98600.00
2018-10-05T07:00:34.920Z,98605.00
2018-10-05T07:03:04.888Z,98602.00
2018-10-05T07:05:34.876Z,98603.00
2018-10-05T07:08:04.942Z,98604.00
2018-10-05T07:10:35.402Z,98612.00
2018-10-05T07:13:05.360Z,98616.00
2018-10-05T07:15:35.373Z,98608.00
2018-10-05T07:18:05.382Z,98606.00
2018-10-05T07:20:35.418Z,98605.00
2018-10-05T07:23:05.389Z,98604.00
2018-10-05T07:25:35.382Z,98601.00
2018-10-05T07:28:05.484Z,98605.00
2018-10-05T07:30:35.568Z,98606.00
2018-10-05T07:33:05.554Z,98604.00
2018-10-05T07:35:35.577Z,98599.00
2018-10-05T07:38:05.561Z,98603.00
2018-10-05T07:40:35.572Z,98599.00
2018-10-05T07:43:05.607Z,98600.00
2018-10-05T07:45:35.679Z,98599.00
2018-10-05T07:48:05.585Z,98596.00
2018-10-05T07:50:35.992Z,98598.00
2018-10-05T07:53:05.900Z,98599.00
2018-10-05T07:55:35.893Z,98595.00
2018-10-05T07:58:05.818Z,98592.00
2018-10-05T08:00:35.791Z,98590.00
2018-10-05T08:03:05.754Z,98590.00
2018-10-05T08:05:35.703Z,98587.00
2018-10-05T08:08:05.669Z,98588.00
2018-10-05T08:10:35.692Z,98574.00
2018-10-05T08:13:05.646Z,98575.00
2018-10-05T08:15:35.596Z,98576.00
2018-10-05T08:18:05.506Z,98569.00
2018-10-05T08:20:35.502Z,98563.00
2018-10-05T08:23:05.389Z,98560.00
2018-10-05T08:25:35.373Z,98553.00
2018-10-05T08:28:05.276Z,98547.00
2018-10-05T08:30:41.899Z,98551.00
2018-10-05T08:33:11.898Z,98539.00
2018-10-05T08:35:41.933Z,98539.00
2018-10-05T08:38:14.757Z,98537.00
2018-10-05T08:40:44.704Z,98538.00
2018-10-05T08:43:14.629Z,98535.00
2018-10-05T08:45:44.602Z,98525.00
2018-10-05T08:48:14.548Z,98516.00
2018-10-05T08:50:44.495Z,98514.00
2018-10-05T08:53:14.433Z,98513.00
2018-10-05T08:55:44.393Z,98524.00
2018-10-05T08:58:14.314Z,98531.00
2018-10-05T09:00:44.242Z,98532.00
2018-10-05T09:03:14.159Z,98521.00
2018-10-05T09:05:44.241Z,98524.00
2018-10-05T09:08:14.184Z,98521.00
2018-10-05T09:10:44.123Z,98518.00
2018-10-05T09:13:14.042Z,98515.00
2018-10-05T09:15:44.044Z,98510.00
2018-10-05T09:18:13.996Z,98517.00
2018-10-05T09:20:43.931Z,98515.00
2018-10-05T09:23:13.917Z,98511.00
2018-10-05T09:25:43.836Z,98503.00
2018-10-05T09:28:13.810Z,98509.00
2018-10-05T09:30:43.808Z,98501.00
2018-10-05T09:33:13.725Z,98509.00
2018-10-05T09:35:43.782Z,98507.00
2018-10-05T09:38:13.875Z,98505.00
2018-10-05T09:40:43.839Z,98507.00
2018-10-05T09:43:14.748Z,98515.00
2018-10-05T09:45:44.765Z,98511.00
2018-10-05T09:48:14.773Z,98506.00
2018-10-05T09:50:44.838Z,98512.00
2018-10-05T09:53:14.853Z,98509.00
2018-10-05T09:55:44.939Z,98505.00
2018-10-05T09:58:15.225Z,98497.00
2018-10-05T10:00:50.487Z,98499.00
2018-10-05T10:03:25.928Z,98493.00
2018-10-05T10:05:56.332Z,98493.00
2018-10-05T10:08:26.885Z,98494.00
2018-10-05T10:10:57.564Z,98499.00
2018-10-05T10:13:27.998Z,98502.00
2018-10-05T10:15:58.576Z,98492.00
2018-10-05T10:18:28.869Z,98495.00
2018-10-05T10:20:59.519Z,98499.00
2018-10-05T10:23:29.927Z,98497.00
2018-10-05T10:26:00.584Z,98494.00
2018-10-05T10:28:30.673Z,98479.00
2018-10-05T10:31:00.683Z,98475.00
2018-10-05T10:33:31.068Z,98477.00
2018-10-05T10:36:01.052Z,98473.00
2018-10-05T10:38:31.026Z,98474.00
2018-10-05T10:41:01.788Z,98467.00
2018-10-05T10:43:31.855Z,98465.00
2018-10-05T10:46:02.346Z,98465.00
2018-10-05T10:48:32.745Z,98455.00
2018-10-05T10:51:03.010Z,98449.00
2018-10-05T10:53:33.283Z,98456.00
2018-10-05T10:56:03.920Z,98442.00
2018-10-05T10:58:34.338Z,98453.00
2018-10-05T11:01:04.721Z,98442.00
2018-10-05T11:03:35.336Z,98444.00
2018-10-05T11:06:05.760Z,98442.00
2018-10-05T11:08:36.437Z,98442.00
2018-10-05T11:11:07.090Z,98429.00
2018-10-05T11:13:37.550Z,98420.00
2018-10-05T11:16:08.103Z,98415.00
2018-10-05T11:18:38.510Z,98413.00
2018-10-05T11:21:09.039Z,98408.00
2018-10-05T11:23:39.057Z,98407.00
2018-10-05T11:26:09.584Z,98407.00
2018-10-05T11:28:39.956Z,98409.00
2018-10-05T11:31:09.942Z,98405.00
2018-10-05T11:33:40.034Z,98402.00
2018-10-05T11:36:10.034Z,98402.00
2018-10-05T11:38:40.421Z,98401.00
2018-10-05T11:41:10.809Z,98400.00
2018-10-05T11:43:41.342Z,98397.00
2018-10-05T11:46:12.274Z,98394.00
2018-10-05T11:48:42.786Z,98393.00
2018-10-05T11:51:13.406Z,98388.00
2018-10-05T11:53:43.855Z,98380.00
2018-10-05T11:56:14.204Z,98378.00
2018-10-05T11:58:44.623Z,98376.00
2018-10-05T12:01:15.060Z,98377.00
2018-10-05T12:03:45.463Z,98370.00
2018-10-05T12:06:15.829Z,98365.00
2018-10-05T12:08:46.134Z,98366.00
2018-10-05T12:11:16.414Z,98366.00
2018-10-05T12:13:46.886Z,98361.00
2018-10-05T12:16:17.339Z,98356.00
2018-10-05T12:18:47.659Z,98353.00
2018-10-05T12:21:18.103Z,98344.00
2018-10-05T12:23:48.081Z,98344.00
2018-10-05T12:26:18.031Z,98340.00
2018-10-05T12:28:48.574Z,98330.00
2018-10-05T12:31:18.950Z,98329.00
2018-10-05T12:33:49.400Z,98328.00
2018-10-05T12:36:19.797Z,98323.00
2018-10-05T12:38:50.177Z,98316.00
2018-10-05T12:41:20.478Z,98309.00
2018-10-05T12:43:50.887Z,98301.00
2018-10-05T12:46:21.220Z,98305.00
2018-10-05T12:48:51.510Z,98299.00
2018-10-05T12:51:22.081Z,98300.00
2018-10-05T12:53:52.499Z,98299.00
2018-10-05T12:56:22.876Z,98296.00
2018-10-05T12:58:53.183Z,98285.00
2018-10-05T13:01:23.542Z,98280.00
2018-10-05T13:03:53.893Z,98267.00
2018-10-05T13:06:24.326Z,98268.00
2018-10-05T13:08:54.393Z,98268.00
2018-10-05T13:11:24.393Z,98257.00
2018-10-05T13:13:54.347Z,98256.00
2018-10-05T13:16:24.333Z,98259.00
2018-10-05T13:18:54.234Z,98258.00
2018-10-05T13:21:24.193Z,98255.00
2018-10-05T13:23:54.167Z,98254.00
2018-10-05T13:26:24.109Z,98249.00
2018-10-05T13:28:54.038Z,98252.00
2018-10-05T13:31:24.006Z,98241.00
2018-10-05T13:33:53.996Z,98238.00
2018-10-05T13:36:23.969Z,98240.00
2018-10-05T13:38:53.894Z,98234.00
2018-10-05T13:41:23.828Z,98234.00
2018-10-05T13:43:54.042Z,98230.00
2018-10-05T13:46:23.973Z,98232.00
2018-10-05T13:48:53.910Z,98232.00
2018-10-05T13:51:24.018Z,98228.00
2018-10-05T13:53:53.922Z,98230.00
2018-10-05T13:56:23.872Z,98220.00
2018-10-05T13:58:53.806Z,98219.00
2018-10-05T14:01:23.742Z,98216.00
2018-10-05T14:03:53.718Z,98219.00
2018-10-05T14:06:23.641Z,98209.00
2018-10-05T14:08:53.549Z,98213.00
2018-10-05T14:11:23.738Z,98209.00
2018-10-05T14:13:53.691Z,98212.00
2018-10-05T14:16:23.843Z,98212.00
2018-10-05T14:18:53.747Z,98217.00
2018-10-05T14:21:23.670Z,98204.00
2018-10-05T14:23:53.686Z,98210.00
2018-10-05T14:26:23.580Z,98214.00
2018-10-05T14:28:53.514Z,98203.00
2018-10-05T14:31:23.462Z,98198.00
2018-10-05T14:33:53.477Z,98197.00
2018-10-05T14:36:23.389Z,98196.00
2018-10-05T14:38:53.855Z,98198.00
2018-10-05T14:41:23.771Z,98191.00
2018-10-05T14:43:53.827Z,98188.00
2018-10-05T14:46:23.778Z,98189.00
2018-10-05T14:49:00.326Z,98184.00
2018-10-05T14:51:30.430Z,98189.00
2018-10-05T14:54:00.399Z,98184.00
2018-10-05T14:56:30.294Z,98185.00
2018-10-05T14:59:00.594Z,98193.00
2018-10-05T15:01:30.490Z,98193.00
2018-10-05T15:04:00.819Z,98194.00
2018-10-05T15:06:31.219Z,98194.00
2018-10-05T15:09:01.641Z,98193.00
2018-10-05T15:11:31.921Z,98191.00
2018-10-05T15:14:02.303Z,98190.00
2018-10-05T15:16:32.244Z,98192.00
2018-10-05T15:19:02.225Z,98191.00
2018-10-05T15:21:32.616Z,98196.00
2018-10-05T15:24:02.586Z,98195.00
2018-10-05T15:26:32.546Z,98202.00
2018-10-05T15:29:02.605Z,98202.00
2018-10-05T15:31:32.578Z,98202.00
2018-10-05T15:34:03.014Z,98206.00
2018-10-05T15:36:33.065Z,98204.00
2018-10-05T15:39:03.067Z,98203.00
2018-10-05T15:41:33.054Z,98204.00
2018-10-05T15:44:03.019Z,98201.00
2018-10-05T15:47:16.777Z,98205.00
2018-10-05T15:49:47.446Z,98208.00
2018-10-05T15:52:17.890Z,98202.00
2018-10-05T15:54:47.794Z,98205.00
2018-10-05T15:57:17.727Z,98204.00
2018-10-05T15:59:47.676Z,98204.00
2018-10-05T16:02:17.640Z,98202.00
2018-10-05T16:04:47.582Z,98205.00
2018-10-05T16:07:17.494Z,98200.00
2018-10-05T16:09:47.503Z,98197.00
2018-10-05T16:12:17.474Z,98197.00
2018-10-05T16:14:47.405Z,98199.00
2018-10-05T16:17:17.345Z,98201.00
2018-10-05T16:19:47.430Z,98191.00
2018-10-05T16:22:17.443Z,98190.00
2018-10-05T16:24:47.571Z,98202.00
2018-10-05T16:27:17.550Z,98205.00
2018-10-05T16:29:47.495Z,98199.00
2018-10-05T16:32:17.413Z,98209.00
2018-10-05T16:34:47.373Z,98209.00
2018-10-05T16:37:17.337Z,98212.00
2018-10-05T16:39:47.254Z,98206.00
2018-10-05T16:42:17.172Z,98215.00
2018-10-05T16:44:47.142Z,98210.00
2018-10-05T16:47:17.527Z,98207.00
2018-10-05T16:49:47.796Z,98207.00
2018-10-05T16:52:18.090Z,98207.00
2018-10-05T16:54:48.617Z,98210.00
2018-10-05T16:57:19.162Z,98213.00
2018-10-05T16:59:49.656Z,98211.00
2018-10-05T17:02:19.872Z,98206.00
2018-10-05T17:04:50.193Z,98212.00
2018-10-05T17:07:20.587Z,98215.00
2018-10-05T17:09:50.827Z,98216.00
2018-10-05T17:12:21.477Z,98225.00
2018-10-05T17:14:51.555Z,98226.00
2018-10-05T17:17:21.566Z,98222.00
2018-10-05T17:19:54.400Z,98224.00
2018-10-05T17:22:24.512Z,98226.00
2018-10-05T17:24:54.526Z,98223.00
2018-10-05T17:27:24.556Z,98223.00
2018-10-05T17:29:54.528Z,98226.00
2018-10-05T17:32:24.509Z,98224.00
2018-10-05T17:34:54.533Z,98223.00
2018-10-05T17:37:24.521Z,98227.00
2018-10-05T17:39:54.479Z,98231.00
2018-10-05T17:42:24.443Z,98229.00
2018-10-05T17:44:54.412Z,98231.00
2018-10-05T17:47:24.406Z,98235.00
2018-10-05T17:49:54.310Z,98235.00
2018-10-05T17:52:24.407Z,98226.00
2018-10-05T17:54:54.359Z,98234.00
2018-10-05T17:57:24.276Z,98238.00
2018-10-05T17:59:54.243Z,98232.00
2018-10-05T18:02:24.483Z,98234.00
2018-10-05T18:04:54.702Z,98243.00
2018-10-05T18:07:24.928Z,98241.00
2018-10-05T18:09:54.921Z,98239.00
2018-10-05T18:12:24.900Z,98241.00
2018-10-05T18:14:54.933Z,98243.00
2018-10-05T18:17:24.812Z,98244.00
2018-10-05T18:19:54.716Z,98246.00
2018-10-05T18:22:24.666Z,98242.00
2018-10-05T18:24:54.687Z,98243.00
2018-10-05T18:27:24.856Z,98248.00
2018-10-05T18:29:54.799Z,98253.00
2018-10-05T18:32:24.805Z,98253.00
2018-10-05T18:34:54.827Z,98248.00
2018-10-05T18:37:24.861Z,98249.00
2018-10-05T18:39:54.822Z,98247.00
2018-10-05T18:42:24.753Z,98249.00
2018-10-05T18:44:54.990Z,98250.00
2018-10-05T18:47:24.977Z,98244.00
2018-10-05T18:49:54.959Z,98239.00
2018-10-05T18:52:25.013Z,98243.00
2018-10-05T18:54:54.970Z,98242.00
2018-10-05T18:57:25.311Z,98243.00
2018-10-05T18:59:55.311Z,98241.00
2018-10-05T19:02:25.888Z,98235.00
2018-10-05T19:04:55.902Z,98234.00
2018-10-05T19:07:25.876Z,98233.00
2018-10-05T19:09:55.838Z,98229.00
2018-10-05T19:12:25.801Z,98230.00
2018-10-05T19:14:55.837Z,98227.00
2018-10-05T19:17:26.018Z,98227.00
2018-10-05T19:19:56.541Z,98218.00
2018-10-05T19:22:27.034Z,98220.00
2018-10-05T19:24:57.488Z,98212.00
2018-10-05T19:27:27.999Z,98214.00
2018-10-05T19:29:58.468Z,98211.00
2018-10-05T19:32:28.988Z,98209.00
2018-10-05T19:34:59.399Z,98200.00
2018-10-05T19:37:30.022Z,98201.00
2018-10-05T19:40:00.639Z,98198.00
2018-10-05T19:42:30.966Z,98193.00
2018-10-05T19:45:01.374Z,98189.00
2018-10-05T19:47:31.875Z,98189.00
2018-10-05T19:50:02.244Z,98185.00
2018-10-05T19:52:32.788Z,98185.00
2018-10-05T19:55:03.041Z,98185.00
2018-10-05T19:57:33.468Z,98181.00
2018-10-05T20:00:03.951Z,98180.00
2018-10-05T20:02:34.514Z,98182.00
2018-10-05T20:05:04.814Z,98185.00
2018-10-05T20:07:35.238Z,98197.00
2018-10-05T20:10:05.955Z,98200.00
2018-10-05T20:12:36.334Z,98191.00
2018-10-05T20:15:06.687Z,98192.00
2018-10-05T20:17:37.132Z,98192.00
2018-10-05T20:20:07.515Z,98185.00
2018-10-05T20:22:38.229Z,98188.00
2018-10-05T20:25:08.590Z,98184.00
2018-10-05T20:27:38.719Z,98180.00
2018-10-05T20:30:10.199Z,98181.00
2018-10-05T20:32:40.280Z,98176.00
2018-10-05T20:35:10.493Z,98176.00
2018-10-05T20:37:41.053Z,98176.00
2018-10-05T20:40:11.274Z,98170.00
2018-10-05T20:42:41.680Z,98176.00
2018-10-05T20:45:11.627Z,98176.00
2018-10-05T20:47:41.917Z,98182.00
2018-10-05T20:50:11.853Z,98187.00
2018-10-05T20:52:41.763Z,98187.00
2018-10-05T20:55:11.738Z,98194.00
2018-10-05T20:57:41.669Z,98193.00
2018-10-05T21:00:11.610Z,98191.00
2018-10-05T21:02:42.192Z,98190.00
2018-10-05T21:05:12.528Z,98189.00
2018-10-05T21:07:42.996Z,98187.00
2018-10-05T21:10:13.340Z,98185.00
2018-10-05T21:12:43.642Z,98184.00
2018-10-05T21:15:14.374Z,98192.00
2018-10-05T21:17:44.530Z,98187.00
2018-10-05T21:20:14.847Z,98181.00
2018-10-05T21:22:45.250Z,98174.00
2018-10-05T21:25:15.337Z,98173.00
2018-10-05T21:27:45.670Z,98164.00
2018-10-05T21:30:16.082Z,98170.00
2018-10-05T21:32:46.555Z,98169.00
2018-10-05T21:35:17.002Z,98168.00
2018-10-05T21:37:47.338Z,98163.00
2018-10-05T21:40:17.276Z,98168.00
2018-10-05T21:42:47.205Z,98167.00
2018-10-05T21:45:17.673Z,98160.00
2018-10-05T21:47:48.040Z,98152.00
2018-10-05T21:50:18.501Z,98156.00
2018-10-05T21:52:48.962Z,98155.00
2018-10-05T21:55:19.238Z,98148.00
2018-10-05T21:57:49.638Z,98147.00
2018-10-05T22:00:19.699Z,98144.00
2018-10-05T22:02:49.660Z,98138.00
2018-10-05T22:05:19.595Z,98140.00
2018-10-05T22:07:49.558Z,98137.00
2018-10-05T22:10:19.470Z,98135.00
2018-10-05T22:12:50.060Z,98136.00
2018-10-05T22:15:20.310Z,98133.00
2018-10-05T22:17:50.682Z,98137.00
2018-10-05T22:20:21.043Z,98137.00
2018-10-05T22:22:51.462Z,98136.00
2018-10-05T22:25:21.929Z,98134.00
2018-10-05T22:27:52.058Z,98136.00
2018-10-05T22:30:22.511Z,98130.00
2018-10-05T22:32:52.928Z,98131.00
2018-10-05T22:35:22.849Z,98133.00
2018-10-05T22:37:53.264Z,98133.00
2018-10-05T22:40:23.362Z,98125.00
2018-10-05T22:42:53.718Z,98125.00
2018-10-05T22:45:24.078Z,98118.00
2018-10-05T22:47:54.358Z,98117.00
2018-10-05T22:50:24.767Z,98124.00
2018-10-05T22:52:54.996Z,98126.00
2018-10-05T22:55:25.292Z,98126.00
2018-10-05T22:57:55.733Z,98121.00
2018-10-05T23:00:26.024Z,98124.00
2018-10-05T23:02:56.482Z,98119.00
2018-10-05T23:05:26.805Z,98121.00
2018-10-05T23:07:57.277Z,98124.00
2018-10-05T23:10:27.531Z,98123.00
2018-10-05T23:12:58.022Z,98125.00
2018-10-05T23:15:28.423Z,98123.00
2018-10-05T23:17:58.672Z,98121.00
2018-10-05T23:20:29.074Z,98115.00
2018-10-05T23:22:59.131Z,98108.00
2018-10-05T23:25:29.359Z,98119.00
2018-10-05T23:27:59.858Z,98113.00
2018-10-05T23:30:30.238Z,98111.00
2018-10-05T23:33:00.728Z,98115.00
2018-10-05T23:35:31.079Z,98108.00
2018-10-05T23:38:01.060Z,98114.00
2018-10-05T23:40:31.458Z,98118.00
2018-10-05T23:43:01.429Z,98109.00
2018-10-05T23:45:31.349Z,98111.00
2018-10-05T23:48:01.275Z,98104.00
2018-10-05T23:50:31.190Z,98103.00
2018-10-05T23:53:01.129Z,98102.00
2018-10-05T23:55:31.033Z,98091.00
2018-10-05T23:58:00.985Z,98091.00
